sensor_id;sensor_type;location;lat;lon;timestamp;pressure;altitude;pressure_sealevel;temperature;humidity
85772;BME280;76212;56.844;41.394;2024-03-22T00:02:09;100829.91;;;-0.38;58.16
85772;BME280;76212;56.844;41.394;2024-03-22T00:04:36;100830.84;;;-0.40;58.18
85772;BME280;76212;56.844;41.394;2024-03-22T00:07:03;100814.56;;;-0.50;58.28
85772;BME280;76212;56.844;41.394;2024-03-22T00:09:29;100779.56;;;-0.74;58.63
85772;BME280;76212;56.844;41.394;2024-03-22T00:11:55;100752.25;;;-0.92;58.66
85772;BME280;76212;56.844;41.394;2024-03-22T00:14:22;100813.81;;;-0.54;59.02
85772;BME280;76212;56.844;41.394;2024-03-22T00:16:48;100817.19;;;-0.52;58.97
85772;BME280;76212;56.844;41.394;2024-03-22T00:19:14;100815.47;;;-0.51;59.15
85772;BME280;76212;56.844;41.394;2024-03-22T00:21:41;100737.56;;;-0.96;59.09
85772;BME280;76212;56.844;41.394;2024-03-22T00:24:07;100805.16;;;-0.56;59.50
85772;BME280;76212;56.844;41.394;2024-03-22T00:26:33;100806.09;;;-0.58;59.68
85772;BME280;76212;56.844;41.394;2024-03-22T00:28:59;100813.09;;;-0.60;59.45
85772;BME280;76212;56.844;41.394;2024-03-22T00:31:26;100731.72;;;-1.06;60.02
85772;BME280;76212;56.844;41.394;2024-03-22T00:33:52;100745.41;;;-0.98;59.69
85772;BME280;76212;56.844;41.394;2024-03-22T00:36:18;100807.13;;;-0.64;60.17
85772;BME280;76212;56.844;41.394;2024-03-22T00:38:46;100805.47;;;-0.68;59.92
85772;BME280;76212;56.844;41.394;2024-03-22T00:41:13;100811.59;;;-0.69;60.16
85772;BME280;76212;56.844;41.394;2024-03-22T00:43:39;100791.94;;;-0.82;60.50
85772;BME280;76212;56.844;41.394;2024-03-22T00:46:05;100816.88;;;-0.72;60.92
85772;BME280;76212;56.844;41.394;2024-03-22T00:48:31;100736.41;;;-1.19;60.96
85772;BME280;76212;56.844;41.394;2024-03-22T00:50:58;100806.59;;;-0.77;60.92
85772;BME280;76212;56.844;41.394;2024-03-22T00:53:24;100805.69;;;-0.76;60.93
85772;BME280;76212;56.844;41.394;2024-03-22T00:55:50;100803.94;;;-0.75;60.89
85772;BME280;76212;56.844;41.394;2024-03-22T00:58:18;100816.22;;;-0.80;61.31
85772;BME280;76212;56.844;41.394;2024-03-22T01:00:45;100812.69;;;-0.78;61.40
85772;BME280;76212;56.844;41.394;2024-03-22T01:03:11;100719.47;;;-1.35;61.63
85772;BME280;76212;56.844;41.394;2024-03-22T01:05:37;100795.53;;;-0.86;61.64
85772;BME280;76212;56.844;41.394;2024-03-22T01:08:06;100802.44;;;-0.85;62.21
85772;BME280;76212;56.844;41.394;2024-03-22T01:10:33;100801.63;;;-0.88;61.94
85772;BME280;76212;56.844;41.394;2024-03-22T01:13:00;100770.91;;;-1.09;62.31
85772;BME280;76212;56.844;41.394;2024-03-22T01:15:26;100794.06;;;-0.97;62.54
85772;BME280;76212;56.844;41.394;2024-03-22T01:17:53;100800.09;;;-0.95;62.48
85772;BME280;76212;56.844;41.394;2024-03-22T01:20:19;100792.41;;;-1.01;62.58
85772;BME280;76212;56.844;41.394;2024-03-22T01:22:46;100722.34;;;-1.46;62.41
85772;BME280;76212;56.844;41.394;2024-03-22T01:25:12;100809.00;;;-1.03;62.66
85772;BME280;76212;56.844;41.394;2024-03-22T01:27:39;100765.19;;;-1.23;62.64
85772;BME280;76212;56.844;41.394;2024-03-22T01:30:05;100715.56;;;-1.53;62.58
85772;BME280;76212;56.844;41.394;2024-03-22T01:32:32;100793.47;;;-1.08;62.59
85772;BME280;76212;56.844;41.394;2024-03-22T01:34:58;100787.47;;;-1.10;63.03
85772;BME280;76212;56.844;41.394;2024-03-22T01:37:24;100758.44;;;-1.32;63.21
85772;BME280;76212;56.844;41.394;2024-03-22T01:39:50;100696.78;;;-1.66;62.76
85772;BME280;76212;56.844;41.394;2024-03-22T01:42:17;100768.72;;;-1.26;63.71
85772;BME280;76212;56.844;41.394;2024-03-22T01:44:43;100787.66;;;-1.19;63.32
85772;BME280;76212;56.844;41.394;2024-03-22T01:47:09;100711.56;;;-1.68;63.18
85772;BME280;76212;56.844;41.394;2024-03-22T01:49:36;100721.88;;;-1.63;63.12
85772;BME280;76212;56.844;41.394;2024-03-22T01:52:02;100785.22;;;-1.25;63.57
85772;BME280;76212;56.844;41.394;2024-03-22T01:54:29;100726.09;;;-1.58;63.55
85772;BME280;76212;56.844;41.394;2024-03-22T01:56:56;100782.66;;;-1.27;63.61
85772;BME280;76212;56.844;41.394;2024-03-22T01:59:23;100764.59;;;-1.35;63.63
85772;BME280;76212;56.844;41.394;2024-03-22T02:01:49;100757.88;;;-1.43;63.45
85772;BME280;76212;56.844;41.394;2024-03-22T02:04:16;100765.53;;;-1.37;63.47
85772;BME280;76212;56.844;41.394;2024-03-22T02:06:43;100768.13;;;-1.37;63.00
85772;BME280;76212;56.844;41.394;2024-03-22T02:09:09;100780.16;;;-1.32;63.39
85772;BME280;76212;56.844;41.394;2024-03-22T02:11:36;100760.47;;;-1.43;63.49
85772;BME280;76212;56.844;41.394;2024-03-22T02:14:06;100763.00;;;-1.40;63.01
85772;BME280;76212;56.844;41.394;2024-03-22T02:16:32;100753.44;;;-1.40;63.04
85772;BME280;76212;56.844;41.394;2024-03-22T02:18:58;100768.97;;;-1.35;63.18
85772;BME280;76212;56.844;41.394;2024-03-22T02:21:25;100755.41;;;-1.49;63.70
85772;BME280;76212;56.844;41.394;2024-03-22T02:23:51;100739.00;;;-1.53;63.54
85772;BME280;76212;56.844;41.394;2024-03-22T02:26:17;100699.66;;;-1.78;63.54
85772;BME280;76212;56.844;41.394;2024-03-22T02:28:43;100641.38;;;-2.08;62.88
85772;BME280;76212;56.844;41.394;2024-03-22T02:31:10;100675.78;;;-1.95;63.37
85772;BME280;76212;56.844;41.394;2024-03-22T02:33:36;100776.09;;;-1.43;63.71
85772;BME280;76212;56.844;41.394;2024-03-22T02:36:02;100766.88;;;-1.57;64.07
85772;BME280;76212;56.844;41.394;2024-03-22T02:38:29;100764.38;;;-1.61;63.84
85772;BME280;76212;56.844;41.394;2024-03-22T02:40:55;100758.34;;;-1.63;64.01
85772;BME280;76212;56.844;41.394;2024-03-22T02:43:24;100760.13;;;-1.65;64.22
85772;BME280;76212;56.844;41.394;2024-03-22T02:45:50;100758.38;;;-1.65;64.03
85772;BME280;76212;56.844;41.394;2024-03-22T02:48:16;100697.47;;;-1.95;63.69
85772;BME280;76212;56.844;41.394;2024-03-22T02:50:43;100766.19;;;-1.65;63.64
85772;BME280;76212;56.844;41.394;2024-03-22T02:53:09;100753.13;;;-1.63;63.42
85772;BME280;76212;56.844;41.394;2024-03-22T02:55:38;100757.56;;;-1.67;63.45
85772;BME280;76212;56.844;41.394;2024-03-22T02:58:05;100727.44;;;-1.79;63.59
85772;BME280;76212;56.844;41.394;2024-03-22T03:00:35;100747.25;;;-1.71;63.73
85772;BME280;76212;56.844;41.394;2024-03-22T03:03:02;100750.63;;;-1.68;63.73
85772;BME280;76212;56.844;41.394;2024-03-22T03:05:28;100754.13;;;-1.69;63.28
85772;BME280;76212;56.844;41.394;2024-03-22T03:07:54;100676.13;;;-2.11;63.41
85772;BME280;76212;56.844;41.394;2024-03-22T03:10:21;100733.69;;;-1.86;63.81
85772;BME280;76212;56.844;41.394;2024-03-22T03:12:47;100749.88;;;-1.73;63.40
85772;BME280;76212;56.844;41.394;2024-03-22T03:15:14;100745.69;;;-1.79;63.72
85772;BME280;76212;56.844;41.394;2024-03-22T03:17:40;100749.97;;;-1.76;63.84
85772;BME280;76212;56.844;41.394;2024-03-22T03:20:06;100744.72;;;-1.74;63.66
85772;BME280;76212;56.844;41.394;2024-03-22T03:22:34;100745.59;;;-1.74;63.40
85772;BME280;76212;56.844;41.394;2024-03-22T03:25:01;100744.66;;;-1.71;63.16
85772;BME280;76212;56.844;41.394;2024-03-22T03:27:27;100677.06;;;-2.13;63.31
85772;BME280;76212;56.844;41.394;2024-03-22T03:29:53;100748.03;;;-1.68;63.16
85772;BME280;76212;56.844;41.394;2024-03-22T03:32:19;100753.22;;;-1.66;62.95
85772;BME280;76212;56.844;41.394;2024-03-22T03:34:46;100748.94;;;-1.69;63.11
85772;BME280;76212;56.844;41.394;2024-03-22T03:37:12;100741.06;;;-1.67;63.37
85772;BME280;76212;56.844;41.394;2024-03-22T03:39:38;100740.22;;;-1.68;63.44
85772;BME280;76212;56.844;41.394;2024-03-22T03:42:05;100705.84;;;-1.82;63.53
85772;BME280;76212;56.844;41.394;2024-03-22T03:44:31;100703.13;;;-1.78;62.68
85772;BME280;76212;56.844;41.394;2024-03-22T03:46:57;100738.28;;;-1.60;62.61
85772;BME280;76212;56.844;41.394;2024-03-22T03:49:23;100726.81;;;-1.52;62.88
85772;BME280;76212;56.844;41.394;2024-03-22T03:51:49;100623.34;;;-2.16;62.67
85772;BME280;76212;56.844;41.394;2024-03-22T03:54:16;100706.38;;;-1.68;63.07
85772;BME280;76212;56.844;41.394;2024-03-22T03:56:42;100721.03;;;-1.64;62.48
85772;BME280;76212;56.844;41.394;2024-03-22T03:59:08;100719.00;;;-1.51;62.94
85772;BME280;76212;56.844;41.394;2024-03-22T04:01:35;100727.56;;;-1.47;62.15
85772;BME280;76212;56.844;41.394;2024-03-22T04:04:02;100623.78;;;-1.99;62.19
85772;BME280;76212;56.844;41.394;2024-03-22T04:06:29;100721.97;;;-1.32;62.19
85772;BME280;76212;56.844;41.394;2024-03-22T04:08:55;100713.06;;;-1.23;61.54
85772;BME280;76212;56.844;41.394;2024-03-22T04:11:21;100692.28;;;-1.26;61.94
85772;BME280;76212;56.844;41.394;2024-03-22T04:13:48;100716.28;;;-1.14;61.23
85772;BME280;76212;56.844;41.394;2024-03-22T04:16:14;100704.94;;;-1.11;61.28
85772;BME280;76212;56.844;41.394;2024-03-22T04:18:40;100676.72;;;-1.28;61.47
85772;BME280;76212;56.844;41.394;2024-03-22T04:21:06;100714.28;;;-1.02;60.99
85772;BME280;76212;56.844;41.394;2024-03-22T04:23:32;100684.94;;;-1.11;61.36
85772;BME280;76212;56.844;41.394;2024-03-22T04:26:00;100715.59;;;-0.88;60.76
85772;BME280;76212;56.844;41.394;2024-03-22T04:28:27;100717.22;;;-0.83;61.06
85772;BME280;76212;56.844;41.394;2024-03-22T04:31:05;100710.00;;;-0.74;60.78
85772;BME280;76212;56.844;41.394;2024-03-22T04:33:32;100620.91;;;-1.21;59.90
85772;BME280;76212;56.844;41.394;2024-03-22T04:35:59;100717.41;;;-0.58;60.23
85772;BME280;76212;56.844;41.394;2024-03-22T04:38:27;100726.78;;;-0.51;59.87
85772;BME280;76212;56.844;41.394;2024-03-22T04:40:53;100613.63;;;-1.08;59.55
85772;BME280;76212;56.844;41.394;2024-03-22T04:43:20;100718.75;;;-0.45;59.38
85772;BME280;76212;56.844;41.394;2024-03-22T04:45:47;100626.94;;;-0.88;59.24
85772;BME280;76212;56.844;41.394;2024-03-22T04:48:19;100715.72;;;-0.31;58.91
85772;BME280;76212;56.844;41.394;2024-03-22T04:50:47;100625.00;;;-0.79;58.77
85772;BME280;76212;56.844;41.394;2024-03-22T04:53:20;100670.94;;;-0.46;58.93
85772;BME280;76212;56.844;41.394;2024-03-22T04:55:50;100712.59;;;-0.13;58.72
85772;BME280;76212;56.844;41.394;2024-03-22T04:58:18;100714.09;;;-0.06;58.38
85772;BME280;76212;56.844;41.394;2024-03-22T05:00:45;100711.31;;;0.01;58.52
85772;BME280;76212;56.844;41.394;2024-03-22T05:03:12;100698.88;;;0.09;58.26
85772;BME280;76212;56.844;41.394;2024-03-22T05:05:39;100689.03;;;0.17;57.97
85772;BME280;76212;56.844;41.394;2024-03-22T05:08:06;100676.69;;;0.22;57.49
85772;BME280;76212;56.844;41.394;2024-03-22T05:10:33;100698.75;;;0.40;57.57
85772;BME280;76212;56.844;41.394;2024-03-22T05:13:00;100675.50;;;0.31;56.79
85772;BME280;76212;56.844;41.394;2024-03-22T05:15:26;100680.25;;;0.46;57.14
85772;BME280;76212;56.844;41.394;2024-03-22T05:17:53;100598.69;;;0.11;56.57
85772;BME280;76212;56.844;41.394;2024-03-22T05:20:20;100532.97;;;-0.28;56.18
85772;BME280;76212;56.844;41.394;2024-03-22T05:22:47;100599.13;;;0.24;56.00
85772;BME280;76212;56.844;41.394;2024-03-22T05:25:14;100679.13;;;0.80;56.30
85772;BME280;76212;56.844;41.394;2024-03-22T05:27:41;100679.53;;;0.93;55.92
85772;BME280;76212;56.844;41.394;2024-03-22T05:30:09;100682.47;;;1.08;55.94
85772;BME280;76212;56.844;41.394;2024-03-22T05:32:35;100686.56;;;1.16;55.81
85772;BME280;76212;56.844;41.394;2024-03-22T05:35:02;100682.81;;;1.23;55.06
85772;BME280;76212;56.844;41.394;2024-03-22T05:37:28;100606.66;;;0.83;55.18
85772;BME280;76212;56.844;41.394;2024-03-22T05:39:55;100680.38;;;1.42;55.13
85772;BME280;76212;56.844;41.394;2024-03-22T05:42:21;100667.19;;;1.45;54.19
85772;BME280;76212;56.844;41.394;2024-03-22T05:44:48;100671.22;;;1.53;54.55
85772;BME280;76212;56.844;41.394;2024-03-22T05:47:14;100671.88;;;1.59;54.37
85772;BME280;76212;56.844;41.394;2024-03-22T05:49:40;100674.00;;;1.72;54.33
85772;BME280;76212;56.844;41.394;2024-03-22T05:52:07;100659.56;;;1.84;53.54
85772;BME280;76212;56.844;41.394;2024-03-22T05:54:33;100670.47;;;1.95;52.66
85772;BME280;76212;56.844;41.394;2024-03-22T05:56:59;100666.13;;;1.94;52.66
85772;BME280;76212;56.844;41.394;2024-03-22T05:59:26;100600.63;;;1.52;52.69
85772;BME280;76212;56.844;41.394;2024-03-22T06:01:53;100665.78;;;2.04;53.04
85772;BME280;76212;56.844;41.394;2024-03-22T06:04:19;100668.69;;;2.18;52.53
85772;BME280;76212;56.844;41.394;2024-03-22T06:06:46;100670.63;;;2.35;52.20
85772;BME280;76212;56.844;41.394;2024-03-22T06:09:12;100666.59;;;2.48;51.25
85772;BME280;76212;56.844;41.394;2024-03-22T06:11:39;100666.94;;;2.61;51.62
85772;BME280;76212;56.844;41.394;2024-03-22T06:14:09;100667.25;;;2.74;51.31
85772;BME280;76212;56.844;41.394;2024-03-22T06:16:36;100634.09;;;2.73;50.52
85772;BME280;76212;56.844;41.394;2024-03-22T06:19:02;100659.97;;;3.01;50.28
85772;BME280;76212;56.844;41.394;2024-03-22T06:21:29;100646.97;;;2.98;50.78
85772;BME280;76212;56.844;41.394;2024-03-22T06:23:55;100619.00;;;2.98;49.72
85772;BME280;76212;56.844;41.394;2024-03-22T06:26:22;100522.06;;;2.56;49.47
85772;BME280;76212;56.844;41.394;2024-03-22T06:28:48;100641.38;;;3.45;49.03
85772;BME280;76212;56.844;41.394;2024-03-22T06:31:14;100598.50;;;3.25;48.94
85772;BME280;76212;56.844;41.394;2024-03-22T06:33:40;100568.00;;;3.23;48.71
85772;BME280;76212;56.844;41.394;2024-03-22T06:36:08;100618.44;;;3.67;48.66
85772;BME280;76212;56.844;41.394;2024-03-22T06:38:34;100630.75;;;3.84;47.74
85772;BME280;76212;56.844;41.394;2024-03-22T06:41:00;100624.81;;;3.98;47.80
85772;BME280;76212;56.844;41.394;2024-03-22T06:43:27;100628.44;;;4.14;47.70
85772;BME280;76212;56.844;41.394;2024-03-22T06:45:53;100554.28;;;3.90;47.29
85772;BME280;76212;56.844;41.394;2024-03-22T06:48:19;100621.81;;;4.42;46.74
85772;BME280;76212;56.844;41.394;2024-03-22T06:50:45;100597.38;;;4.40;46.71
85772;BME280;76212;56.844;41.394;2024-03-22T06:53:12;100614.44;;;4.66;46.57
85772;BME280;76212;56.844;41.394;2024-03-22T06:55:38;100519.09;;;4.10;45.24
85772;BME280;76212;56.844;41.394;2024-03-22T06:58:05;100614.66;;;4.62;45.16
85772;BME280;76212;56.844;41.394;2024-03-22T07:00:31;100609.25;;;4.65;45.39
85772;BME280;76212;56.844;41.394;2024-03-22T07:03:02;100605.19;;;4.92;45.14
85772;BME280;76212;56.844;41.394;2024-03-22T07:05:28;100606.53;;;5.17;45.24
85772;BME280;76212;56.844;41.394;2024-03-22T07:07:55;100603.06;;;5.32;45.22
85772;BME280;76212;56.844;41.394;2024-03-22T07:10:23;100601.78;;;5.39;44.11
85772;BME280;76212;56.844;41.394;2024-03-22T07:12:56;100570.63;;;5.48;44.29
85772;BME280;76212;56.844;41.394;2024-03-22T07:15:23;100542.47;;;5.48;43.42
85772;BME280;76212;56.844;41.394;2024-03-22T07:17:50;100606.53;;;5.80;43.92
85772;BME280;76212;56.844;41.394;2024-03-22T07:20:17;100605.19;;;5.89;43.98
85772;BME280;76212;56.844;41.394;2024-03-22T07:22:44;100602.03;;;5.82;43.11
85772;BME280;76212;56.844;41.394;2024-03-22T07:25:11;100588.44;;;5.74;43.26
85772;BME280;76212;56.844;41.394;2024-03-22T07:27:38;100592.75;;;5.91;42.65
85772;BME280;76212;56.844;41.394;2024-03-22T07:30:04;100583.88;;;5.94;42.38
85772;BME280;76212;56.844;41.394;2024-03-22T07:32:31;100595.41;;;5.91;42.38
85772;BME280;76212;56.844;41.394;2024-03-22T07:34:58;100589.13;;;5.94;42.86
85772;BME280;76212;56.844;41.394;2024-03-22T07:37:24;100519.78;;;5.61;43.08
85772;BME280;76212;56.844;41.394;2024-03-22T07:39:50;100583.72;;;6.11;41.90
85772;BME280;76212;56.844;41.394;2024-03-22T07:42:17;100585.34;;;6.14;41.96
85772;BME280;76212;56.844;41.394;2024-03-22T07:44:44;100580.31;;;6.39;42.63
85772;BME280;76212;56.844;41.394;2024-03-22T07:47:11;100583.84;;;6.54;41.91
85772;BME280;76212;56.844;41.394;2024-03-22T07:49:38;100554.09;;;6.66;41.76
85772;BME280;76212;56.844;41.394;2024-03-22T07:52:05;100572.56;;;7.09;40.90
85772;BME280;76212;56.844;41.394;2024-03-22T07:54:31;100575.56;;;7.17;39.58
85772;BME280;76212;56.844;41.394;2024-03-22T07:56:58;100504.94;;;6.92;38.25
85772;BME280;76212;56.844;41.394;2024-03-22T07:59:24;100565.38;;;7.40;38.86
85772;BME280;76212;56.844;41.394;2024-03-22T08:01:51;100451.72;;;6.71;38.35
85772;BME280;76212;56.844;41.394;2024-03-22T08:04:17;100495.59;;;7.01;37.86
85772;BME280;76212;56.844;41.394;2024-03-22T08:06:43;100541.19;;;7.32;38.52
85772;BME280;76212;56.844;41.394;2024-03-22T08:09:10;100542.56;;;7.25;37.92
85772;BME280;76212;56.844;41.394;2024-03-22T08:11:36;100552.38;;;7.50;37.14
85772;BME280;76212;56.844;41.394;2024-03-22T08:14:03;100536.78;;;7.59;37.22
85772;BME280;76212;56.844;41.394;2024-03-22T08:16:29;100550.22;;;7.83;36.89
85772;BME280;76212;56.844;41.394;2024-03-22T08:18:56;100498.59;;;7.91;36.83
85772;BME280;76212;56.844;41.394;2024-03-22T08:21:24;100528.72;;;8.28;35.87
85772;BME280;76212;56.844;41.394;2024-03-22T08:23:51;100508.84;;;8.22;35.40
85772;BME280;76212;56.844;41.394;2024-03-22T08:26:18;100524.72;;;8.35;35.00
85772;BME280;76212;56.844;41.394;2024-03-22T08:28:48;100488.91;;;8.17;34.88
85772;BME280;76212;56.844;41.394;2024-03-22T08:31:14;100517.63;;;8.36;35.31
85772;BME280;76212;56.844;41.394;2024-03-22T08:33:41;100523.34;;;8.42;34.76
85772;BME280;76212;56.844;41.394;2024-03-22T08:36:07;100522.50;;;8.42;35.22
85772;BME280;76212;56.844;41.394;2024-03-22T08:38:33;100515.63;;;8.52;34.18
85772;BME280;76212;56.844;41.394;2024-03-22T08:41:00;100500.25;;;8.19;34.90
85772;BME280;76212;56.844;41.394;2024-03-22T08:43:26;100508.63;;;8.25;35.05
85772;BME280;76212;56.844;41.394;2024-03-22T08:45:53;100504.91;;;8.15;35.38
85772;BME280;76212;56.844;41.394;2024-03-22T08:48:20;100499.81;;;8.12;35.04
85772;BME280;76212;56.844;41.394;2024-03-22T08:50:46;100433.66;;;7.87;34.99
85772;BME280;76212;56.844;41.394;2024-03-22T08:53:12;100507.69;;;8.39;35.49
85772;BME280;76212;56.844;41.394;2024-03-22T08:55:45;100495.75;;;8.46;34.89
85772;BME280;76212;56.844;41.394;2024-03-22T08:58:13;100443.09;;;8.03;34.85
85772;BME280;76212;56.844;41.394;2024-03-22T09:00:46;100495.38;;;8.25;34.70
85772;BME280;76212;56.844;41.394;2024-03-22T09:03:13;100433.53;;;7.75;35.32
85772;BME280;76212;56.844;41.394;2024-03-22T09:05:41;100495.69;;;8.21;35.69
85772;BME280;76212;56.844;41.394;2024-03-22T09:08:07;100465.53;;;8.23;35.74
85772;BME280;76212;56.844;41.394;2024-03-22T09:10:34;100428.41;;;8.25;35.39
85772;BME280;76212;56.844;41.394;2024-03-22T09:13:01;100454.75;;;8.65;35.12
85772;BME280;76212;56.844;41.394;2024-03-22T09:15:27;100471.94;;;8.96;35.84
85772;BME280;76212;56.844;41.394;2024-03-22T09:17:53;100468.84;;;9.15;35.36
85772;BME280;76212;56.844;41.394;2024-03-22T09:20:20;100394.56;;;8.80;35.83
85772;BME280;76212;56.844;41.394;2024-03-22T09:22:46;100463.34;;;9.29;34.72
85772;BME280;76212;56.844;41.394;2024-03-22T09:25:12;100462.19;;;9.33;34.37
85772;BME280;76212;56.844;41.394;2024-03-22T09:27:39;100428.25;;;9.14;34.84
85772;BME280;76212;56.844;41.394;2024-03-22T09:30:05;100445.50;;;9.20;34.51
85772;BME280;76212;56.844;41.394;2024-03-22T09:32:32;100429.19;;;9.13;34.95
85772;BME280;76212;56.844;41.394;2024-03-22T09:34:58;100442.28;;;9.28;34.81
85772;BME280;76212;56.844;41.394;2024-03-22T09:37:24;100366.53;;;8.88;33.81
85772;BME280;76212;56.844;41.394;2024-03-22T09:39:50;100415.19;;;9.11;33.92
85772;BME280;76212;56.844;41.394;2024-03-22T09:42:17;100426.44;;;9.15;33.88
85772;BME280;76212;56.844;41.394;2024-03-22T09:44:49;100419.88;;;9.08;33.65
85772;BME280;76212;56.844;41.394;2024-03-22T09:47:18;100417.56;;;9.03;34.74
85772;BME280;76212;56.844;41.394;2024-03-22T09:49:47;100349.91;;;8.62;34.51
85772;BME280;76212;56.844;41.394;2024-03-22T09:52:15;100412.22;;;9.16;34.31
85772;BME280;76212;56.844;41.394;2024-03-22T09:54:45;100321.00;;;8.59;33.99
85772;BME280;76212;56.844;41.394;2024-03-22T09:57:14;100414.63;;;9.19;33.82
85772;BME280;76212;56.844;41.394;2024-03-22T09:59:47;100378.97;;;9.12;34.13
85772;BME280;76212;56.844;41.394;2024-03-22T10:02:13;100405.50;;;9.23;33.88
85772;BME280;76212;56.844;41.394;2024-03-22T10:04:40;100406.88;;;9.29;34.18
85772;BME280;76212;56.844;41.394;2024-03-22T10:07:07;100408.88;;;9.49;33.71
85772;BME280;76212;56.844;41.394;2024-03-22T10:09:35;100401.41;;;9.43;32.29
85772;BME280;76212;56.844;41.394;2024-03-22T10:12:03;100406.69;;;9.43;32.69
85772;BME280;76212;56.844;41.394;2024-03-22T10:14:30;100402.66;;;9.37;32.31
85772;BME280;76212;56.844;41.394;2024-03-22T10:16:57;100354.69;;;8.94;32.39
85772;BME280;76212;56.844;41.394;2024-03-22T10:19:24;100405.63;;;9.22;31.11
85772;BME280;76212;56.844;41.394;2024-03-22T10:22:08;100386.53;;;9.05;31.73
85772;BME280;76212;56.844;41.394;2024-03-22T10:24:35;100397.72;;;9.09;31.17
85772;BME280;76212;56.844;41.394;2024-03-22T10:27:01;100333.97;;;8.75;31.66
85772;BME280;76212;56.844;41.394;2024-03-22T10:29:27;100384.41;;;9.22;31.55
85772;BME280;76212;56.844;41.394;2024-03-22T10:31:55;100365.03;;;9.21;31.12
85772;BME280;76212;56.844;41.394;2024-03-22T10:34:22;100385.56;;;9.30;31.12
85772;BME280;76212;56.844;41.394;2024-03-22T10:36:49;100372.81;;;9.35;31.24
85772;BME280;76212;56.844;41.394;2024-03-22T10:39:19;100377.13;;;9.36;30.85
85772;BME280;76212;56.844;41.394;2024-03-22T10:41:46;100320.09;;;9.20;31.42
85772;BME280;76212;56.844;41.394;2024-03-22T10:44:14;100367.78;;;9.44;30.67
85772;BME280;76212;56.844;41.394;2024-03-22T10:46:48;100370.19;;;9.47;30.70
85772;BME280;76212;56.844;41.394;2024-03-22T10:49:21;100286.94;;;9.03;29.87
85772;BME280;76212;56.844;41.394;2024-03-22T10:52:01;100360.22;;;9.62;28.71
85772;BME280;76212;56.844;41.394;2024-03-22T10:54:33;100341.50;;;9.41;27.20
85772;BME280;76212;56.844;41.394;2024-03-22T10:57:01;100357.25;;;9.31;26.77
85772;BME280;76212;56.844;41.394;2024-03-22T10:59:33;100222.34;;;8.57;26.84
85772;BME280;76212;56.844;41.394;2024-03-22T11:02:03;100345.50;;;9.46;26.29
85772;BME280;76212;56.844;41.394;2024-03-22T11:04:30;100347.31;;;9.57;25.23
85772;BME280;76212;56.844;41.394;2024-03-22T11:06:57;100331.25;;;9.47;24.02
85772;BME280;76212;56.844;41.394;2024-03-22T11:09:27;100334.63;;;9.38;23.54
85772;BME280;76212;56.844;41.394;2024-03-22T11:11:55;100341.50;;;9.41;23.78
85772;BME280;76212;56.844;41.394;2024-03-22T11:14:21;100332.91;;;9.37;23.97
85772;BME280;76212;56.844;41.394;2024-03-22T11:16:49;100262.41;;;9.23;24.90
85772;BME280;76212;56.844;41.394;2024-03-22T11:19:16;100340.00;;;9.83;24.34
85772;BME280;76212;56.844;41.394;2024-03-22T11:21:42;100329.75;;;9.78;23.31
85772;BME280;76212;56.844;41.394;2024-03-22T11:24:09;100327.59;;;9.72;21.56
85772;BME280;76212;56.844;41.394;2024-03-22T11:26:37;100325.28;;;9.56;23.03
85772;BME280;76212;56.844;41.394;2024-03-22T11:29:03;100291.75;;;9.44;22.77
85772;BME280;76212;56.844;41.394;2024-03-22T11:31:30;100305.97;;;9.54;21.62
85772;BME280;76212;56.844;41.394;2024-03-22T11:33:56;100277.34;;;9.24;21.94
85772;BME280;76212;56.844;41.394;2024-03-22T11:36:23;100251.16;;;8.73;21.47
85772;BME280;76212;56.844;41.394;2024-03-22T11:38:50;100307.28;;;9.02;22.14
85772;BME280;76212;56.844;41.394;2024-03-22T11:41:27;100307.38;;;9.01;22.32
85772;BME280;76212;56.844;41.394;2024-03-22T11:43:56;100296.78;;;9.01;21.23
85772;BME280;76212;56.844;41.394;2024-03-22T11:46:24;100303.00;;;9.24;21.29
85772;BME280;76212;56.844;41.394;2024-03-22T11:48:54;100165.56;;;8.61;21.12
85772;BME280;76212;56.844;41.394;2024-03-22T11:51:21;100205.97;;;8.99;20.94
85772;BME280;76212;56.844;41.394;2024-03-22T11:53:49;100282.47;;;9.50;20.09
85772;BME280;76212;56.844;41.394;2024-03-22T11:56:18;100202.88;;;9.05;19.80
85772;BME280;76212;56.844;41.394;2024-03-22T11:58:48;100285.47;;;9.45;19.70
85772;BME280;76212;56.844;41.394;2024-03-22T12:01:15;100201.19;;;9.04;20.23
85772;BME280;76212;56.844;41.394;2024-03-22T12:03:48;100254.63;;;9.44;20.58
85772;BME280;76212;56.844;41.394;2024-03-22T12:06:17;100257.88;;;9.48;20.80
85772;BME280;76212;56.844;41.394;2024-03-22T12:08:44;100257.75;;;9.49;20.24
85772;BME280;76212;56.844;41.394;2024-03-22T12:11:10;100250.41;;;9.53;20.16
85772;BME280;76212;56.844;41.394;2024-03-22T12:13:38;100249.91;;;9.48;20.72
85772;BME280;76212;56.844;41.394;2024-03-22T12:16:04;100252.34;;;9.51;20.04
85772;BME280;76212;56.844;41.394;2024-03-22T12:18:31;100235.47;;;9.41;19.88
85772;BME280;76212;56.844;41.394;2024-03-22T12:20:58;100171.69;;;8.97;19.75
85772;BME280;76212;56.844;41.394;2024-03-22T12:23:24;100215.81;;;9.32;20.32
85772;BME280;76212;56.844;41.394;2024-03-22T12:25:51;100229.19;;;9.53;20.97
85772;BME280;76212;56.844;41.394;2024-03-22T12:28:18;100167.13;;;9.22;20.21
85772;BME280;76212;56.844;41.394;2024-03-22T12:30:47;100217.91;;;9.51;20.30
85772;BME280;76212;56.844;41.394;2024-03-22T12:33:14;100164.25;;;9.13;19.92
85772;BME280;76212;56.844;41.394;2024-03-22T12:35:40;100196.81;;;9.38;20.14
85772;BME280;76212;56.844;41.394;2024-03-22T12:38:07;100211.03;;;9.48;20.40
85772;BME280;76212;56.844;41.394;2024-03-22T12:40:37;100150.75;;;9.05;20.23
85772;BME280;76212;56.844;41.394;2024-03-22T12:43:04;100200.16;;;9.40;19.63
85772;BME280;76212;56.844;41.394;2024-03-22T12:45:31;100181.38;;;9.43;20.50